sensor_id;sensor_type;location;lat;lon;timestamp;P1;durP1;ratioP1;P2;durP2;ratioP2
2748;SDS011;1382;52.142;11.618;2023-06-10T00:01:41;7.70;;;4.43;;
2748;SDS011;1382;52.142;11.618;2023-06-10T00:04:08;4.50;;;4.10;;
2748;SDS011;1382;52.142;11.618;2023-06-10T00:06:35;10.20;;;4.83;;
2748;SDS011;1382;52.142;11.618;2023-06-10T00:09:02;5.57;;;3.60;;
2748;SDS011;1382;52.142;11.618;2023-06-10T00:11:30;7.83;;;4.83;;
2748;SDS011;1382;52.142;11.618;2023-06-10T00:13:57;8.83;;;4.53;;
2748;SDS011;1382;52.142;11.618;2023-06-10T00:16:23;7.23;;;4.57;;
2748;SDS011;1382;52.142;11.618;2023-06-10T00:18:51;10.97;;;4.80;;
2748;SDS011;1382;52.142;11.618;2023-06-10T00:21:18;9.00;;;4.10;;
2748;SDS011;1382;52.142;11.618;2023-06-10T00:23:45;7.57;;;4.77;;
2748;SDS011;1382;52.142;11.618;2023-06-10T00:26:11;10.23;;;5.77;;
2748;SDS011;1382;52.142;11.618;2023-06-10T00:28:38;14.33;;;4.57;;
2748;SDS011;1382;52.142;11.618;2023-06-10T00:31:05;9.27;;;4.60;;
2748;SDS011;1382;52.142;11.618;2023-06-10T00:33:32;6.93;;;4.80;;
2748;SDS011;1382;52.142;11.618;2023-06-10T00:36:00;9.03;;;5.53;;
2748;SDS011;1382;52.142;11.618;2023-06-10T00:38:26;8.23;;;5.40;;
2748;SDS011;1382;52.142;11.618;2023-06-10T00:40:53;7.30;;;4.80;;
2748;SDS011;1382;52.142;11.618;2023-06-10T00:43:20;5.17;;;3.50;;
2748;SDS011;1382;52.142;11.618;2023-06-10T00:45:46;5.40;;;3.87;;
2748;SDS011;1382;52.142;11.618;2023-06-10T00:48:13;9.00;;;5.53;;
2748;SDS011;1382;52.142;11.618;2023-06-10T00:50:40;10.07;;;5.30;;
2748;SDS011;1382;52.142;11.618;2023-06-10T00:53:08;6.30;;;4.43;;
2748;SDS011;1382;52.142;11.618;2023-06-10T00:55:37;7.00;;;5.33;;
2748;SDS011;1382;52.142;11.618;2023-06-10T00:58:04;6.63;;;4.63;;
2748;SDS011;1382;52.142;11.618;2023-06-10T01:00:30;10.73;;;5.50;;
2748;SDS011;1382;52.142;11.618;2023-06-10T01:02:57;9.57;;;5.47;;
2748;SDS011;1382;52.142;11.618;2023-06-10T01:05:24;8.73;;;5.13;;
2748;SDS011;1382;52.142;11.618;2023-06-10T01:07:53;11.23;;;4.87;;
2748;SDS011;1382;52.142;11.618;2023-06-10T01:10:29;9.77;;;5.93;;
2748;SDS011;1382;52.142;11.618;2023-06-10T01:13:00;6.37;;;4.60;;
2748;SDS011;1382;52.142;11.618;2023-06-10T01:15:29;8.30;;;4.37;;
2748;SDS011;1382;52.142;11.618;2023-06-10T01:17:57;7.20;;;4.67;;
2748;SDS011;1382;52.142;11.618;2023-06-10T01:20:25;9.73;;;5.13;;
2748;SDS011;1382;52.142;11.618;2023-06-10T01:22:53;9.43;;;4.20;;
2748;SDS011;1382;52.142;11.618;2023-06-10T01:25:20;8.87;;;4.43;;
2748;SDS011;1382;52.142;11.618;2023-06-10T01:27:47;7.80;;;4.50;;
2748;SDS011;1382;52.142;11.618;2023-06-10T01:30:17;7.37;;;4.83;;
2748;SDS011;1382;52.142;11.618;2023-06-10T01:32:48;6.77;;;4.80;;
2748;SDS011;1382;52.142;11.618;2023-06-10T01:35:17;9.47;;;4.90;;
2748;SDS011;1382;52.142;11.618;2023-06-10T01:37:50;11.37;;;4.80;;
2748;SDS011;1382;52.142;11.618;2023-06-10T01:40:23;9.57;;;5.90;;
2748;SDS011;1382;52.142;11.618;2023-06-10T01:42:51;4.40;;;4.00;;
2748;SDS011;1382;52.142;11.618;2023-06-10T01:45:18;6.33;;;4.93;;
2748;SDS011;1382;52.142;11.618;2023-06-10T01:47:45;7.77;;;5.00;;
2748;SDS011;1382;52.142;11.618;2023-06-10T01:50:12;9.93;;;4.70;;
2748;SDS011;1382;52.142;11.618;2023-06-10T01:52:38;11.47;;;5.00;;
2748;SDS011;1382;52.142;11.618;2023-06-10T01:55:07;7.20;;;5.07;;
2748;SDS011;1382;52.142;11.618;2023-06-10T01:57:34;6.50;;;4.67;;
2748;SDS011;1382;52.142;11.618;2023-06-10T02:00:01;7.77;;;4.70;;
2748;SDS011;1382;52.142;11.618;2023-06-10T02:02:27;10.13;;;6.00;;
2748;SDS011;1382;52.142;11.618;2023-06-10T02:04:54;7.47;;;5.43;;
2748;SDS011;1382;52.142;11.618;2023-06-10T02:07:21;8.20;;;5.43;;
2748;SDS011;1382;52.142;11.618;2023-06-10T02:09:48;9.60;;;5.13;;
2748;SDS011;1382;52.142;11.618;2023-06-10T02:12:16;8.00;;;4.60;;
2748;SDS011;1382;52.142;11.618;2023-06-10T02:14:43;10.57;;;5.20;;
2748;SDS011;1382;52.142;11.618;2023-06-10T02:17:10;13.03;;;5.97;;
2748;SDS011;1382;52.142;11.618;2023-06-10T02:19:37;8.57;;;4.97;;
2748;SDS011;1382;52.142;11.618;2023-06-10T02:22:03;9.87;;;5.50;;
2748;SDS011;1382;52.142;11.618;2023-06-10T02:24:30;9.03;;;6.20;;
2748;SDS011;1382;52.142;11.618;2023-06-10T02:26:57;10.10;;;6.13;;
2748;SDS011;1382;52.142;11.618;2023-06-10T02:29:25;6.63;;;4.87;;
2748;SDS011;1382;52.142;11.618;2023-06-10T02:31:52;9.17;;;5.00;;
2748;SDS011;1382;52.142;11.618;2023-06-10T02:34:18;13.07;;;6.00;;
2748;SDS011;1382;52.142;11.618;2023-06-10T02:36:45;8.97;;;5.37;;
2748;SDS011;1382;52.142;11.618;2023-06-10T02:39:12;9.27;;;5.47;;
2748;SDS011;1382;52.142;11.618;2023-06-10T02:41:38;8.90;;;5.47;;
2748;SDS011;1382;52.142;11.618;2023-06-10T02:44:05;8.30;;;5.87;;
2748;SDS011;1382;52.142;11.618;2023-06-10T02:46:33;7.37;;;4.27;;
2748;SDS011;1382;52.142;11.618;2023-06-10T02:49:00;9.40;;;5.27;;
2748;SDS011;1382;52.142;11.618;2023-06-10T02:51:27;7.40;;;5.30;;
2748;SDS011;1382;52.142;11.618;2023-06-10T02:53:53;10.53;;;5.87;;
2748;SDS011;1382;52.142;11.618;2023-06-10T02:56:20;12.33;;;6.50;;
2748;SDS011;1382;52.142;11.618;2023-06-10T02:58:47;10.30;;;6.13;;
2748;SDS011;1382;52.142;11.618;2023-06-10T03:01:14;12.77;;;6.97;;
2748;SDS011;1382;52.142;11.618;2023-06-10T03:03:42;8.20;;;6.60;;
2748;SDS011;1382;52.142;11.618;2023-06-10T03:06:09;11.00;;;6.93;;
2748;SDS011;1382;52.142;11.618;2023-06-10T03:08:36;9.23;;;6.90;;
2748;SDS011;1382;52.142;11.618;2023-06-10T03:11:03;10.07;;;6.23;;
2748;SDS011;1382;52.142;11.618;2023-06-10T03:13:30;6.90;;;4.60;;
2748;SDS011;1382;52.142;11.618;2023-06-10T03:15:58;11.00;;;6.40;;
2748;SDS011;1382;52.142;11.618;2023-06-10T03:18:25;14.10;;;6.33;;
2748;SDS011;1382;52.142;11.618;2023-06-10T03:20:54;10.33;;;6.90;;
2748;SDS011;1382;52.142;11.618;2023-06-10T03:23:21;9.87;;;7.00;;
2748;SDS011;1382;52.142;11.618;2023-06-10T03:25:48;12.00;;;7.30;;
2748;SDS011;1382;52.142;11.618;2023-06-10T03:28:15;16.07;;;7.50;;
2748;SDS011;1382;52.142;11.618;2023-06-10T03:30:42;14.10;;;5.97;;
2748;SDS011;1382;52.142;11.618;2023-06-10T03:33:09;9.90;;;6.63;;
2748;SDS011;1382;52.142;11.618;2023-06-10T03:35:36;12.10;;;6.57;;
2748;SDS011;1382;52.142;11.618;2023-06-10T03:38:04;8.80;;;5.60;;
2748;SDS011;1382;52.142;11.618;2023-06-10T03:40:30;6.13;;;4.80;;
2748;SDS011;1382;52.142;11.618;2023-06-10T03:42:57;11.07;;;7.10;;
2748;SDS011;1382;52.142;11.618;2023-06-10T03:45:24;10.60;;;7.07;;
2748;SDS011;1382;52.142;11.618;2023-06-10T03:47:51;13.70;;;7.20;;
2748;SDS011;1382;52.142;11.618;2023-06-10T03:50:18;12.60;;;6.63;;
2748;SDS011;1382;52.142;11.618;2023-06-10T03:52:44;11.33;;;6.90;;
2748;SDS011;1382;52.142;11.618;2023-06-10T03:55:13;11.30;;;7.17;;
2748;SDS011;1382;52.142;11.618;2023-06-10T03:57:39;7.57;;;5.97;;
2748;SDS011;1382;52.142;11.618;2023-06-10T04:00:07;13.63;;;7.70;;
2748;SDS011;1382;52.142;11.618;2023-06-10T04:02:34;10.60;;;6.50;;
2748;SDS011;1382;52.142;11.618;2023-06-10T04:05:01;14.00;;;7.70;;
2748;SDS011;1382;52.142;11.618;2023-06-10T04:07:27;10.20;;;6.60;;
2748;SDS011;1382;52.142;11.618;2023-06-10T04:09:56;12.30;;;7.67;;
2748;SDS011;1382;52.142;11.618;2023-06-10T04:12:24;8.70;;;5.33;;
2748;SDS011;1382;52.142;11.618;2023-06-10T04:14:51;8.80;;;7.67;;
2748;SDS011;1382;52.142;11.618;2023-06-10T04:17:17;13.13;;;7.53;;
2748;SDS011;1382;52.142;11.618;2023-06-10T04:19:44;10.87;;;7.50;;
2748;SDS011;1382;52.142;11.618;2023-06-10T04:22:11;11.87;;;7.50;;
2748;SDS011;1382;52.142;11.618;2023-06-10T04:24:38;10.83;;;7.57;;
2748;SDS011;1382;52.142;11.618;2023-06-10T04:27:05;10.97;;;7.43;;
2748;SDS011;1382;52.142;11.618;2023-06-10T04:29:33;10.73;;;7.30;;
2748;SDS011;1382;52.142;11.618;2023-06-10T04:32:00;13.20;;;7.90;;
2748;SDS011;1382;52.142;11.618;2023-06-10T04:34:26;9.20;;;6.73;;
2748;SDS011;1382;52.142;11.618;2023-06-10T04:36:53;13.70;;;8.90;;
2748;SDS011;1382;52.142;11.618;2023-06-10T04:39:20;11.07;;;7.43;;
2748;SDS011;1382;52.142;11.618;2023-06-10T04:41:47;9.13;;;6.73;;
2748;SDS011;1382;52.142;11.618;2023-06-10T04:44:13;11.43;;;6.47;;
2748;SDS011;1382;52.142;11.618;2023-06-10T04:46:41;11.30;;;7.93;;
2748;SDS011;1382;52.142;11.618;2023-06-10T04:49:08;11.67;;;7.07;;
2748;SDS011;1382;52.142;11.618;2023-06-10T04:51:35;10.73;;;7.37;;
2748;SDS011;1382;52.142;11.618;2023-06-10T04:54:02;9.33;;;7.60;;
2748;SDS011;1382;52.142;11.618;2023-06-10T04:56:29;11.10;;;8.00;;
2748;SDS011;1382;52.142;11.618;2023-06-10T04:58:56;11.53;;;7.40;;
2748;SDS011;1382;52.142;11.618;2023-06-10T05:01:22;12.20;;;7.00;;
2748;SDS011;1382;52.142;11.618;2023-06-10T05:03:51;10.07;;;7.60;;
2748;SDS011;1382;52.142;11.618;2023-06-10T05:06:18;14.67;;;7.53;;
2748;SDS011;1382;52.142;11.618;2023-06-10T05:08:44;13.53;;;6.70;;
2748;SDS011;1382;52.142;11.618;2023-06-10T05:11:11;8.70;;;6.13;;
2748;SDS011;1382;52.142;11.618;2023-06-10T05:13:38;8.33;;;5.67;;
2748;SDS011;1382;52.142;11.618;2023-06-10T05:16:05;13.83;;;8.53;;
2748;SDS011;1382;52.142;11.618;2023-06-10T05:18:31;12.83;;;6.70;;
2748;SDS011;1382;52.142;11.618;2023-06-10T05:20:59;8.77;;;6.60;;
2748;SDS011;1382;52.142;11.618;2023-06-10T05:23:26;11.07;;;6.90;;
2748;SDS011;1382;52.142;11.618;2023-06-10T05:25:53;9.70;;;6.17;;
2748;SDS011;1382;52.142;11.618;2023-06-10T05:28:20;11.30;;;6.60;;
2748;SDS011;1382;52.142;11.618;2023-06-10T05:30:47;12.97;;;7.37;;
2748;SDS011;1382;52.142;11.618;2023-06-10T05:33:14;9.63;;;5.23;;
2748;SDS011;1382;52.142;11.618;2023-06-10T05:35:40;11.07;;;6.33;;
2748;SDS011;1382;52.142;11.618;2023-06-10T05:38:08;10.73;;;6.07;;
2748;SDS011;1382;52.142;11.618;2023-06-10T05:40:35;7.43;;;4.93;;
2748;SDS011;1382;52.142;11.618;2023-06-10T05:43:02;9.03;;;4.93;;
2748;SDS011;1382;52.142;11.618;2023-06-10T05:45:29;7.77;;;5.10;;
2748;SDS011;1382;52.142;11.618;2023-06-10T05:47:55;8.63;;;5.63;;
2748;SDS011;1382;52.142;11.618;2023-06-10T05:50:23;9.10;;;6.40;;
2748;SDS011;1382;52.142;11.618;2023-06-10T05:52:50;8.80;;;5.67;;
2748;SDS011;1382;52.142;11.618;2023-06-10T05:55:18;12.60;;;5.87;;
2748;SDS011;1382;52.142;11.618;2023-06-10T05:57:45;9.80;;;5.43;;
2748;SDS011;1382;52.142;11.618;2023-06-10T06:00:12;8.30;;;5.00;;
2748;SDS011;1382;52.142;11.618;2023-06-10T06:02:39;9.30;;;6.17;;
2748;SDS011;1382;52.142;11.618;2023-06-10T06:05:07;8.73;;;5.20;;
2748;SDS011;1382;52.142;11.618;2023-06-10T06:07:34;11.90;;;6.70;;
2748;SDS011;1382;52.142;11.618;2023-06-10T06:10:01;10.50;;;6.93;;
2748;SDS011;1382;52.142;11.618;2023-06-10T06:12:29;12.27;;;5.90;;
2748;SDS011;1382;52.142;11.618;2023-06-10T06:14:56;9.90;;;6.03;;
2748;SDS011;1382;52.142;11.618;2023-06-10T06:17:23;9.60;;;5.10;;
2748;SDS011;1382;52.142;11.618;2023-06-10T06:19:49;10.43;;;5.60;;
2748;SDS011;1382;52.142;11.618;2023-06-10T06:22:16;8.47;;;5.83;;
2748;SDS011;1382;52.142;11.618;2023-06-10T06:24:43;10.87;;;5.07;;
2748;SDS011;1382;52.142;11.618;2023-06-10T06:27:10;13.43;;;6.93;;
2748;SDS011;1382;52.142;11.618;2023-06-10T06:29:38;11.60;;;6.30;;
2748;SDS011;1382;52.142;11.618;2023-06-10T06:32:05;16.03;;;7.33;;
2748;SDS011;1382;52.142;11.618;2023-06-10T06:34:32;8.83;;;6.57;;
2748;SDS011;1382;52.142;11.618;2023-06-10T06:36:59;11.93;;;7.30;;
2748;SDS011;1382;52.142;11.618;2023-06-10T06:39:26;19.33;;;7.97;;
2748;SDS011;1382;52.142;11.618;2023-06-10T06:41:53;10.47;;;7.30;;
2748;SDS011;1382;52.142;11.618;2023-06-10T06:44:19;12.00;;;7.57;;
2748;SDS011;1382;52.142;11.618;2023-06-10T06:46:47;9.20;;;5.60;;
2748;SDS011;1382;52.142;11.618;2023-06-10T06:49:14;10.83;;;6.53;;
2748;SDS011;1382;52.142;11.618;2023-06-10T06:51:41;13.80;;;7.30;;
2748;SDS011;1382;52.142;11.618;2023-06-10T06:54:08;11.73;;;5.90;;
2748;SDS011;1382;52.142;11.618;2023-06-10T06:56:34;9.10;;;7.30;;
2748;SDS011;1382;52.142;11.618;2023-06-10T06:59:01;8.47;;;5.93;;
2748;SDS011;1382;52.142;11.618;2023-06-10T07:01:28;15.70;;;8.93;;
2748;SDS011;1382;52.142;11.618;2023-06-10T07:03:56;9.67;;;6.57;;
2748;SDS011;1382;52.142;11.618;2023-06-10T07:06:23;11.03;;;6.80;;
2748;SDS011;1382;52.142;11.618;2023-06-10T07:08:49;9.93;;;7.70;;
2748;SDS011;1382;52.142;11.618;2023-06-10T07:11:16;8.87;;;6.43;;
2748;SDS011;1382;52.142;11.618;2023-06-10T07:13:43;17.13;;;9.07;;
2748;SDS011;1382;52.142;11.618;2023-06-10T07:16:09;11.43;;;7.43;;
2748;SDS011;1382;52.142;11.618;2023-06-10T07:18:36;11.03;;;7.73;;
2748;SDS011;1382;52.142;11.618;2023-06-10T07:21:04;11.83;;;8.70;;
2748;SDS011;1382;52.142;11.618;2023-06-10T07:23:31;12.70;;;7.97;;
2748;SDS011;1382;52.142;11.618;2023-06-10T07:25:59;12.93;;;7.97;;
2748;SDS011;1382;52.142;11.618;2023-06-10T07:28:26;7.17;;;5.73;;
2748;SDS011;1382;52.142;11.618;2023-06-10T07:30:52;12.53;;;7.27;;
2748;SDS011;1382;52.142;11.618;2023-06-10T07:33:19;9.80;;;7.60;;
2748;SDS011;1382;52.142;11.618;2023-06-10T07:35:46;12.23;;;7.43;;
2748;SDS011;1382;52.142;11.618;2023-06-10T07:38:14;11.80;;;8.30;;
2748;SDS011;1382;52.142;11.618;2023-06-10T07:40:41;11.20;;;8.00;;
2748;SDS011;1382;52.142;11.618;2023-06-10T07:43:08;10.40;;;7.97;;
2748;SDS011;1382;52.142;11.618;2023-06-10T07:45:34;14.77;;;8.23;;
2748;SDS011;1382;52.142;11.618;2023-06-10T07:48:01;11.63;;;7.23;;
2748;SDS011;1382;52.142;11.618;2023-06-10T07:50:28;12.73;;;8.77;;
2748;SDS011;1382;52.142;11.618;2023-06-10T07:52:55;15.30;;;8.70;;
2748;SDS011;1382;52.142;11.618;2023-06-10T07:55:23;8.90;;;7.50;;
2748;SDS011;1382;52.142;11.618;2023-06-10T07:57:49;9.50;;;7.53;;
2748;SDS011;1382;52.142;11.618;2023-06-10T08:00:16;8.93;;;8.03;;
2748;SDS011;1382;52.142;11.618;2023-06-10T08:02:44;12.40;;;7.40;;
2748;SDS011;1382;52.142;11.618;2023-06-10T08:05:11;9.60;;;6.80;;
2748;SDS011;1382;52.142;11.618;2023-06-10T08:07:38;12.30;;;7.50;;
2748;SDS011;1382;52.142;11.618;2023-06-10T08:10:06;12.10;;;7.27;;
2748;SDS011;1382;52.142;11.618;2023-06-10T08:12:35;11.47;;;8.53;;
2748;SDS011;1382;52.142;11.618;2023-06-10T08:15:02;13.53;;;7.77;;
2748;SDS011;1382;52.142;11.618;2023-06-10T08:17:30;10.53;;;7.67;;
2748;SDS011;1382;52.142;11.618;2023-06-10T08:19:57;12.23;;;7.40;;
2748;SDS011;1382;52.142;11.618;2023-06-10T08:22:23;14.90;;;8.97;;
2748;SDS011;1382;52.142;11.618;2023-06-10T08:24:50;12.50;;;9.20;;
2748;SDS011;1382;52.142;11.618;2023-06-10T08:27:17;11.77;;;7.63;;
2748;SDS011;1382;52.142;11.618;2023-06-10T08:29:45;16.47;;;9.40;;
2748;SDS011;1382;52.142;11.618;2023-06-10T08:32:12;15.60;;;9.70;;
2748;SDS011;1382;52.142;11.618;2023-06-10T08:34:38;12.63;;;7.10;;
2748;SDS011;1382;52.142;11.618;2023-06-10T08:37:06;11.83;;;9.63;;
2748;SDS011;1382;52.142;11.618;2023-06-10T08:39:33;14.00;;;10.27;;
2748;SDS011;1382;52.142;11.618;2023-06-10T08:42:02;13.83;;;9.67;;
2748;SDS011;1382;52.142;11.618;2023-06-10T08:44:36;12.77;;;9.53;;
2748;SDS011;1382;52.142;11.618;2023-06-10T08:47:05;11.57;;;7.77;;
2748;SDS011;1382;52.142;11.618;2023-06-10T08:49:38;7.70;;;6.90;;
2748;SDS011;1382;52.142;11.618;2023-06-10T08:52:08;11.73;;;9.63;;
2748;SDS011;1382;52.142;11.618;2023-06-10T08:54:40;12.00;;;9.10;;
2748;SDS011;1382;52.142;11.618;2023-06-10T08:57:09;12.13;;;8.57;;
2748;SDS011;1382;52.142;11.618;2023-06-10T08:59:36;15.23;;;9.00;;
2748;SDS011;1382;52.142;11.618;2023-06-10T09:02:05;11.40;;;8.07;;
2748;SDS011;1382;52.142;11.618;2023-06-10T09:04:34;10.47;;;8.60;;
2748;SDS011;1382;52.142;11.618;2023-06-10T09:07:03;12.90;;;8.00;;
2748;SDS011;1382;52.142;11.618;2023-06-10T09:09:31;10.60;;;8.97;;
2748;SDS011;1382;52.142;11.618;2023-06-10T09:11:59;11.77;;;8.53;;
2748;SDS011;1382;52.142;11.618;2023-06-10T09:14:26;10.80;;;8.83;;
2748;SDS011;1382;52.142;11.618;2023-06-10T09:16:52;14.03;;;10.30;;
2748;SDS011;1382;52.142;11.618;2023-06-10T09:19:20;14.93;;;8.47;;
2748;SDS011;1382;52.142;11.618;2023-06-10T09:21:47;10.53;;;9.53;;
2748;SDS011;1382;52.142;11.618;2023-06-10T09:24:14;10.77;;;8.23;;
2748;SDS011;1382;52.142;11.618;2023-06-10T09:26:42;15.83;;;8.67;;
2748;SDS011;1382;52.142;11.618;2023-06-10T09:29:09;8.73;;;7.83;;
2748;SDS011;1382;52.142;11.618;2023-06-10T09:31:36;11.90;;;7.33;;
2748;SDS011;1382;52.142;11.618;2023-06-10T09:34:05;11.07;;;9.40;;
2748;SDS011;1382;52.142;11.618;2023-06-10T09:36:34;12.20;;;10.73;;
2748;SDS011;1382;52.142;11.618;2023-06-10T09:39:01;8.90;;;8.00;;
2748;SDS011;1382;52.142;11.618;2023-06-10T09:41:32;11.43;;;8.90;;
2748;SDS011;1382;52.142;11.618;2023-06-10T09:43:59;14.93;;;11.33;;
2748;SDS011;1382;52.142;11.618;2023-06-10T09:46:25;13.70;;;9.37;;
2748;SDS011;1382;52.142;11.618;2023-06-10T09:48:57;13.63;;;10.60;;
2748;SDS011;1382;52.142;11.618;2023-06-10T09:51:24;11.20;;;9.37;;
2748;SDS011;1382;52.142;11.618;2023-06-10T09:53:52;15.03;;;9.80;;
2748;SDS011;1382;52.142;11.618;2023-06-10T09:56:20;10.80;;;9.17;;
2748;SDS011;1382;52.142;11.618;2023-06-10T09:58:47;13.83;;;8.10;;
2748;SDS011;1382;52.142;11.618;2023-06-10T10:01:14;11.17;;;9.97;;
2748;SDS011;1382;52.142;11.618;2023-06-10T10:03:44;10.03;;;8.67;;
2748;SDS011;1382;52.142;11.618;2023-06-10T10:06:11;9.87;;;8.60;;
2748;SDS011;1382;52.142;11.618;2023-06-10T10:08:39;10.17;;;8.97;;
2748;SDS011;1382;52.142;11.618;2023-06-10T10:11:07;14.27;;;9.60;;
2748;SDS011;1382;52.142;11.618;2023-06-10T10:13:34;10.83;;;8.93;;
2748;SDS011;1382;52.142;11.618;2023-06-10T10:16:03;15.37;;;10.53;;
2748;SDS011;1382;52.142;11.618;2023-06-10T10:18:32;12.53;;;9.20;;
2748;SDS011;1382;52.142;11.618;2023-06-10T10:21:03;10.47;;;9.20;;
2748;SDS011;1382;52.142;11.618;2023-06-10T10:23:34;9.87;;;8.97;;
2748;SDS011;1382;52.142;11.618;2023-06-10T10:26:07;10.73;;;9.73;;
2748;SDS011;1382;52.142;11.618;2023-06-10T10:28:37;10.70;;;9.57;;
2748;SDS011;1382;52.142;11.618;2023-06-10T10:31:11;11.97;;;9.73;;
2748;SDS011;1382;52.142;11.618;2023-06-10T10:33:40;15.60;;;9.80;;
2748;SDS011;1382;52.142;11.618;2023-06-10T10:36:14;11.20;;;10.00;;
2748;SDS011;1382;52.142;11.618;2023-06-10T10:38:42;11.33;;;10.10;;
2748;SDS011;1382;52.142;11.618;2023-06-10T10:41:13;11.30;;;10.30;;
2748;SDS011;1382;52.142;11.618;2023-06-10T10:43:41;11.80;;;8.77;;
2748;SDS011;1382;52.142;11.618;2023-06-10T10:46:11;11.73;;;8.83;;
2748;SDS011;1382;52.142;11.618;2023-06-10T10:48:39;9.53;;;8.50;;
2748;SDS011;1382;52.142;11.618;2023-06-10T10:51:06;11.13;;;8.97;;
2748;SDS011;1382;52.142;11.618;2023-06-10T10:53:33;7.50;;;6.57;;
2748;SDS011;1382;52.142;11.618;2023-06-10T10:56:00;11.30;;;9.00;;
2748;SDS011;1382;52.142;11.618;2023-06-10T10:58:32;10.27;;;9.27;;
2748;SDS011;1382;52.142;11.618;2023-06-10T11:01:00;13.00;;;9.90;;
2748;SDS011;1382;52.142;11.618;2023-06-10T11:03:41;10.23;;;9.13;;
2748;SDS011;1382;52.142;11.618;2023-06-10T11:06:11;11.00;;;9.50;;
2748;SDS011;1382;52.142;11.618;2023-06-10T11:08:45;9.40;;;8.50;;
2748;SDS011;1382;52.142;11.618;2023-06-10T11:11:19;8.80;;;7.90;;
2748;SDS011;1382;52.142;11.618;2023-06-10T11:16:52;10.87;;;9.10;;
2748;SDS011;1382;52.142;11.618;2023-06-10T11:22:01;8.80;;;8.00;;
2748;SDS011;1382;52.142;11.618;2023-06-10T11:24:29;11.53;;;9.43;;
2748;SDS011;1382;52.142;11.618;2023-06-10T11:29:55;8.83;;;8.03;;
2748;SDS011;1382;52.142;11.618;2023-06-10T11:32:24;10.23;;;8.60;;
2748;SDS011;1382;52.142;11.618;2023-06-10T11:34:55;9.73;;;8.73;;
2748;SDS011;1382;52.142;11.618;2023-06-10T11:37:22;8.97;;;8.10;;
2748;SDS011;1382;52.142;11.618;2023-06-10T11:39:51;10.23;;;7.50;;
2748;SDS011;1382;52.142;11.618;2023-06-10T11:42:19;12.90;;;8.70;;
2748;SDS011;1382;52.142;11.618;2023-06-10T11:44:49;9.40;;;7.87;;
2748;SDS011;1382;52.142;11.618;2023-06-10T11:47:17;8.10;;;7.40;;
2748;SDS011;1382;52.142;11.618;2023-06-10T11:49:44;9.43;;;8.60;;
2748;SDS011;1382;52.142;11.618;2023-06-10T11:52:13;9.63;;;8.73;;
2748;SDS011;1382;52.142;11.618;2023-06-10T11:54:40;10.80;;;7.70;;
2748;SDS011;1382;52.142;11.618;2023-06-10T11:57:07;12.20;;;7.23;;
2748;SDS011;1382;52.142;11.618;2023-06-10T11:59:34;8.00;;;7.20;;
2748;SDS011;1382;52.142;11.618;2023-06-10T12:02:01;8.97;;;7.90;;
2748;SDS011;1382;52.142;11.618;2023-06-10T12:04:29;8.37;;;7.60;;
2748;SDS011;1382;52.142;11.618;2023-06-10T12:06:56;9.33;;;8.43;;
2748;SDS011;1382;52.142;11.618;2023-06-10T12:09:23;18.10;;;8.80;;
2748;SDS011;1382;52.142;11.618;2023-06-10T12:11:54;9.33;;;8.53;;
2748;SDS011;1382;52.142;11.618;2023-06-10T12:17:19;9.83;;;8.20;;
2748;SDS011;1382;52.142;11.618;2023-06-10T12:19:48;8.57;;;7.73;;
2748;SDS011;1382;52.142;11.618;2023-06-10T12:22:15;13.83;;;7.17;;
2748;SDS011;1382;52.142;11.618;2023-06-10T12:24:45;9.03;;;8.27;;
2748;SDS011;1382;52.142;11.618;2023-06-10T12:27:22;9.83;;;8.93;;
2748;SDS011;1382;52.142;11.618;2023-06-10T12:29:50;10.30;;;9.37;;
2748;SDS011;1382;52.142;11.618;2023-06-10T12:32:17;8.23;;;7.53;;
2748;SDS011;1382;52.142;11.618;2023-06-10T12:34:44;10.30;;;8.13;;
2748;SDS011;1382;52.142;11.618;2023-06-10T12:37:12;8.90;;;8.00;;
2748;SDS011;1382;52.142;11.618;2023-06-10T12:39:39;13.90;;;8.50;;
2748;SDS011;1382;52.142;11.618;2023-06-10T12:42:08;9.60;;;8.60;;
2748;SDS011;1382;52.142;11.618;2023-06-10T12:44:38;10.00;;;9.00;;
2748;SDS011;1382;52.142;11.618;2023-06-10T12:47:06;12.60;;;8.97;;
2748;SDS011;1382;52.142;11.618;2023-06-10T12:49:34;9.00;;;8.23;;
2748;SDS011;1382;52.142;11.618;2023-06-10T12:52:01;9.40;;;8.43;;
2748;SDS011;1382;52.142;11.618;2023-06-10T12:54:29;9.40;;;8.50;;
2748;SDS011;1382;52.142;11.618;2023-06-10T12:56:56;9.80;;;8.93;;
2748;SDS011;1382;52.142;11.618;2023-06-10T12:59:23;8.97;;;8.17;;
2748;SDS011;1382;52.142;11.618;2023-06-10T13:01:50;8.53;;;7.73;;
2748;SDS011;1382;52.142;11.618;2023-06-10T13:04:17;9.17;;;8.33;;
2748;SDS011;1382;52.142;11.618;2023-06-10T13:06:44;10.93;;;9.00;;
2748;SDS011;1382;52.142;11.618;2023-06-10T13:09:10;9.37;;;8.47;;
2748;SDS011;1382;52.142;11.618;2023-06-10T13:11:38;8.77;;;7.90;;
2748;SDS011;1382;52.142;11.618;2023-06-10T13:14:06;10.77;;;8.60;;
2748;SDS011;1382;52.142;11.618;2023-06-10T13:16:33;8.30;;;7.60;;
2748;SDS011;1382;52.142;11.618;2023-06-10T13:19:00;12.90;;;8.17;;
2748;SDS011;1382;52.142;11.618;2023-06-10T13:21:26;14.00;;;8.33;;
2748;SDS011;1382;52.142;11.618;2023-06-10T13:23:53;10.03;;;7.63;;
2748;SDS011;1382;52.142;11.618;2023-06-10T13:26:20;9.33;;;8.30;;
2748;SDS011;1382;52.142;11.618;2023-06-10T13:28:48;9.27;;;8.47;;
2748;SDS011;1382;52.142;11.618;2023-06-10T13:31:15;8.73;;;7.10;;
2748;SDS011;1382;52.142;11.618;2023-06-10T13:33:42;8.67;;;7.93;;
2748;SDS011;1382;52.142;11.618;2023-06-10T13:36:08;8.53;;;7.63;;
2748;SDS011;1382;52.142;11.618;2023-06-10T13:38:35;8.00;;;7.30;;
2748;SDS011;1382;52.142;11.618;2023-06-10T13:41:02;9.20;;;7.90;;
2748;SDS011;1382;52.142;11.618;2023-06-10T13:43:30;9.87;;;7.30;;
2748;SDS011;1382;52.142;11.618;2023-06-10T13:45:58;15.00;;;6.90;;
2748;SDS011;1382;52.142;11.618;2023-06-10T13:48:25;5.57;;;4.27;;
2748;SDS011;1382;52.142;11.618;2023-06-10T13:50:52;9.50;;;7.60;;
2748;SDS011;1382;52.142;11.618;2023-06-10T13:53:19;15.20;;;8.07;;
2748;SDS011;1382;52.142;11.618;2023-06-10T13:55:45;13.23;;;7.30;;
2748;SDS011;1382;52.142;11.618;2023-06-10T13:58:12;10.90;;;7.80;;
2748;SDS011;1382;52.142;11.618;2023-06-10T14:00:39;10.60;;;8.10;;
2748;SDS011;1382;52.142;11.618;2023-06-10T14:03:07;8.37;;;7.53;;
2748;SDS011;1382;52.142;11.618;2023-06-10T14:05:34;12.80;;;8.57;;
2748;SDS011;1382;52.142;11.618;2023-06-10T14:08:00;9.47;;;8.50;;
2748;SDS011;1382;52.142;11.618;2023-06-10T14:10:27;6.90;;;6.20;;
2748;SDS011;1382;52.142;11.618;2023-06-10T14:12:54;8.40;;;7.60;;
2748;SDS011;1382;52.142;11.618;2023-06-10T14:15:21;13.57;;;7.63;;
2748;SDS011;1382;52.142;11.618;2023-06-10T14:17:47;11.43;;;6.40;;
2748;SDS011;1382;52.142;11.618;2023-06-10T14:20:15;10.73;;;6.57;;
2748;SDS011;1382;52.142;11.618;2023-06-10T14:22:42;6.97;;;5.03;;
2748;SDS011;1382;52.142;11.618;2023-06-10T14:25:09;9.33;;;6.60;;
2748;SDS011;1382;52.142;11.618;2023-06-10T14:27:36;6.00;;;5.40;;
2748;SDS011;1382;52.142;11.618;2023-06-10T14:30:03;7.77;;;6.97;;
2748;SDS011;1382;52.142;11.618;2023-06-10T14:32:31;9.27;;;6.73;;
2748;SDS011;1382;52.142;11.618;2023-06-10T14:34:58;9.03;;;5.83;;
2748;SDS011;1382;52.142;11.618;2023-06-10T14:37:26;6.93;;;6.23;;
2748;SDS011;1382;52.142;11.618;2023-06-10T14:39:52;7.53;;;6.40;;
2748;SDS011;1382;52.142;11.618;2023-06-10T14:42:19;6.97;;;6.37;;
2748;SDS011;1382;52.142;11.618;2023-06-10T14:44:46;6.63;;;6.00;;
2748;SDS011;1382;52.142;11.618;2023-06-10T14:47:13;10.30;;;7.07;;
2748;SDS011;1382;52.142;11.618;2023-06-10T14:49:39;8.30;;;7.43;;
2748;SDS011;1382;52.142;11.618;2023-06-10T14:52:06;7.23;;;6.47;;
2748;SDS011;1382;52.142;11.618;2023-06-10T14:54:35;7.00;;;6.30;;
2748;SDS011;1382;52.142;11.618;2023-06-10T14:57:02;7.80;;;6.40;;
2748;SDS011;1382;52.142;11.618;2023-06-10T14:59:29;7.67;;;6.43;;
2748;SDS011;1382;52.142;11.618;2023-06-10T15:01:55;6.40;;;5.80;;
2748;SDS011;1382;52.142;11.618;2023-06-10T15:04:22;10.03;;;6.67;;
2748;SDS011;1382;52.142;11.618;2023-06-10T15:06:50;7.80;;;6.40;;